Terminal Aerodrome Forecast
Issued by NWS Houston/Galveston, TX

Home | Current Version | Previous Version | Text Only | Print | Product List | Glossary On
Versions: 1 2 3 4 5 6 7 8 9 10 11 12 13 14 15 16 17 18
000
FTUS44 KHGX 191740
TAFCLL
TAF
KCLL 191740Z 1918/2018 12007KT P6SM OVC024
     FM200000 15008KT 6SM BR OVC010
     FM200400 14007KT 4SM BR OVC007
      TEMPO 2006/2009 2SM BR OVC004
     FM200900 15005KT 1SM BR OVC003
     FM201500 18007KT 5SM BR BKN006 OVC015=

USA.gov is the U.S. government's official web portal to all federal, state and local government web resources and services.